Time;durP1;ratioP1;P1;durP2;ratioP2;P2;SDS_P1;SDS_P2;PMS_P1;PMS_P2;Temp;Humidity;BMP_temperature;BMP_pressure;BME280_temperature;BME280_humidity;BME280_pressure;Samples;Min_cycle;Max_cycle;Signal;HPM_P1;HPM_P2
2021/05/08 00:01:26;;;;;;;3.72;2.20;;;6.50;93.40;;;;;;5076288;28;20110;-79
2021/05/08 00:03:53;;;;;;;4.78;2.13;;;6.50;93.60;;;;;;5093238;28;20044;-80
2021/05/08 00:06:19;;;;;;;6.85;2.15;;;6.50;93.60;;;;;;5104459;28;20072;-78
2021/05/08 00:08:46;;;;;;;3.47;1.90;;;6.60;93.70;;;;;;5114559;28;20063;-78
2021/05/08 00:11:13;;;;;;;4.32;2.00;;;6.50;93.80;;;;;;5092858;28;20135;-78
2021/05/08 00:13:40;;;;;;;6.20;1.92;;;6.50;93.70;;;;;;5114122;28;20120;-79
2021/05/08 00:16:07;;;;;;;4.93;2.42;;;6.50;93.70;;;;;;5078738;28;20557;-78
2021/05/08 00:18:34;;;;;;;5.97;2.47;;;6.50;93.50;;;;;;5102508;28;20069;-79
2021/05/08 00:21:01;;;;;;;4.82;2.40;;;6.50;93.20;;;;;;5107630;28;20069;-78
2021/05/08 00:23:27;;;;;;;4.40;2.20;;;6.40;93.20;;;;;;5124779;28;20039;-78
2021/05/08 00:25:55;;;;;;;4.40;2.17;;;6.30;93.30;;;;;;5124412;28;20039;-78
2021/05/08 00:28:21;;;;;;;5.15;2.20;;;6.20;93.20;;;;;;5123460;28;20039;-77
2021/05/08 00:30:48;;;;;;;4.05;2.30;;;6.00;93.30;;;;;;5114047;28;20516;-78
2021/05/08 00:33:14;;;;;;;4.13;2.22;;;6.00;93.70;;;;;;5114090;28;20138;-79
2021/05/08 00:35:42;;;;;;;5.15;2.30;;;5.90;93.90;;;;;;5113949;28;20138;-78
2021/05/08 00:38:09;;;;;;;4.38;2.45;;;5.90;93.90;;;;;;5113871;28;20043;-78
2021/05/08 00:40:35;;;;;;;4.60;2.22;;;5.90;93.90;;;;;;5113882;28;20071;-79
2021/05/08 00:43:02;;;;;;;4.55;2.08;;;5.80;93.90;;;;;;5113688;28;20085;-79
2021/05/08 00:45:29;;;;;;;4.47;2.40;;;5.90;94.20;;;;;;5113806;28;20045;-78
2021/05/08 00:48:04;;;;;;;5.03;2.30;;;6.00;94.30;;;;;;5121429;28;20090;-78
2021/05/08 00:50:33;;;;;;;4.53;2.40;;;5.80;93.70;;;;;;5123861;28;20108;-79
2021/05/08 00:53:01;;;;;;;6.18;2.40;;;5.90;94.00;;;;;;5125207;28;20067;-77
2021/05/08 00:55:28;;;;;;;4.75;2.28;;;5.70;94.10;;;;;;5125234;28;20048;-77
2021/05/08 00:57:55;;;;;;;5.45;2.88;;;5.70;93.80;;;;;;5116242;28;20615;-78
2021/05/08 01:00:23;;;;;;;4.90;2.85;;;5.60;93.90;;;;;;5124395;28;20047;-78
2021/05/08 01:02:50;;;;;;;3.55;2.10;;;5.50;94.10;;;;;;5118534;28;20121;-78
2021/05/08 01:05:17;;;;;;;5.78;2.20;;;5.40;94.40;;;;;;5113879;28;20048;-79
2021/05/08 01:07:44;;;;;;;5.20;2.42;;;5.40;94.60;;;;;;5113432;28;20159;-78
2021/05/08 01:10:15;;;;;;;5.13;2.25;;;5.40;94.80;;;;;;5113994;28;20122;-78
2021/05/08 01:12:43;;;;;;;5.13;2.20;;;5.30;95.00;;;;;;5113433;28;20105;-78
2021/05/08 01:15:14;;;;;;;6.18;2.45;;;5.40;95.00;;;;;;5113749;28;20134;-78
2021/05/08 01:17:41;;;;;;;5.05;2.72;;;5.40;94.80;;;;;;5113154;28;20047;-79
2021/05/08 01:20:11;;;;;;;6.00;2.50;;;5.40;94.70;;;;;;5113391;28;20386;-79
2021/05/08 01:22:39;;;;;;;5.80;2.20;;;5.30;94.60;;;;;;5113556;28;20074;-79
2021/05/08 01:25:09;;;;;;;4.82;2.28;;;5.20;95.00;;;;;;5113485;28;20052;-78
2021/05/08 01:27:43;;;;;;;4.00;2.25;;;5.30;95.10;;;;;;5112196;28;20398;-78
2021/05/08 01:30:12;;;;;;;4.78;2.42;;;5.30;95.30;;;;;;5113606;28;20044;-78
2021/05/08 01:32:39;;;;;;;4.50;2.40;;;5.30;95.30;;;;;;5113192;28;20101;-78
2021/05/08 01:35:07;;;;;;;5.10;2.25;;;5.30;95.00;;;;;;5113157;28;20082;-78
2021/05/08 01:37:33;;;;;;;4.88;2.20;;;5.30;95.10;;;;;;5113401;28;20044;-78
2021/05/08 01:40:07;;;;;;;4.63;2.22;;;5.30;95.10;;;;;;5113439;28;20139;-78
2021/05/08 01:42:34;;;;;;;5.60;2.53;;;5.30;95.40;;;;;;5112838;28;20569;-78
2021/05/08 01:45:09;;;;;;;4.55;2.15;;;5.20;94.80;;;;;;5113110;28;20067;-78
2021/05/08 01:47:36;;;;;;;;;;;5.30;94.90;;;;;;5112704;28;20056;-78
2021/05/08 01:50:03;;;;;;;4.57;2.50;;;5.20;94.70;;;;;;5119349;28;19947;-78
2021/05/08 01:52:30;;;;;;;4.85;2.45;;;5.20;94.70;;;;;;5121005;28;20085;-79
2021/05/08 01:54:57;;;;;;;4.70;2.47;;;5.20;94.80;;;;;;5113199;28;20047;-79
2021/05/08 01:57:25;;;;;;;5.35;2.30;;;5.20;94.80;;;;;;5112662;28;20071;-79
2021/05/08 01:59:51;;;;;;;5.00;2.47;;;5.20;94.80;;;;;;5094781;28;20098;-78
2021/05/08 02:02:18;;;;;;;5.18;2.80;;;5.30;94.80;;;;;;5096832;28;20086;-78
2021/05/08 02:04:44;;;;;;;6.78;2.85;;;5.20;94.70;;;;;;5117023;28;20078;-79
2021/05/08 02:07:11;;;;;;;4.70;2.50;;;5.10;94.60;;;;;;5119228;28;20109;-79
2021/05/08 02:09:37;;;;;;;5.57;3.15;;;5.10;94.80;;;;;;5118513;28;20409;-78
2021/05/08 02:12:06;;;;;;;4.57;2.63;;;5.00;94.80;;;;;;5116870;28;20126;-79
2021/05/08 02:14:33;;;;;;;5.38;2.80;;;5.00;95.00;;;;;;5115312;28;20083;-78
2021/05/08 02:17:00;;;;;;;4.60;2.42;;;5.00;95.00;;;;;;5101037;28;20047;-79
2021/05/08 02:19:27;;;;;;;4.65;2.40;;;5.00;95.20;;;;;;5099948;28;20078;-78
2021/05/08 02:21:55;;;;;;;5.25;2.80;;;5.00;95.10;;;;;;5100646;28;20085;-78
2021/05/08 02:24:21;;;;;;;4.10;2.60;;;5.00;94.90;;;;;;5124928;28;20046;-78
2021/05/08 02:26:48;;;;;;;5.43;2.92;;;5.10;94.80;;;;;;5127984;28;20048;-78
2021/05/08 02:29:14;;;;;;;5.43;2.50;;;5.10;94.80;;;;;;5123017;28;20047;-78
2021/05/08 02:31:42;;;;;;;5.25;2.63;;;5.10;94.80;;;;;;5116205;28;20079;-79
2021/05/08 02:34:08;;;;;;;6.30;2.75;;;4.80;94.60;;;;;;5116510;28;20074;-78
2021/05/08 02:36:35;;;;;;;6.10;2.72;;;4.70;94.80;;;;;;5116515;28;20520;-79
2021/05/08 02:39:02;;;;;;;5.85;2.80;;;4.60;94.90;;;;;;5115932;28;20079;-78
2021/05/08 02:41:28;;;;;;;4.28;2.72;;;4.50;95.00;;;;;;5116059;28;20127;-78
2021/05/08 02:43:56;;;;;;;7.25;2.83;;;4.40;95.20;;;;;;5116235;28;20085;-78
2021/05/08 02:46:23;;;;;;;4.82;2.80;;;4.40;95.40;;;;;;5116015;28;20047;-78
2021/05/08 02:48:50;;;;;;;5.07;2.50;;;4.30;95.70;;;;;;5116213;28;20054;-78
2021/05/08 02:51:17;;;;;;;5.57;2.97;;;4.50;96.00;;;;;;5116214;28;20079;-78
2021/05/08 02:53:44;;;;;;;5.32;2.47;;;4.40;95.90;;;;;;5115335;28;20055;-78
2021/05/08 02:56:10;;;;;;;7.22;3.13;;;4.40;95.80;;;;;;5115948;28;20478;-78
2021/05/08 02:58:37;;;;;;;5.47;2.85;;;4.40;95.70;;;;;;5115576;28;20083;-79
2021/05/08 03:01:04;;;;;;;5.57;2.70;;;4.40;95.80;;;;;;5115644;28;20089;-78
2021/05/08 03:03:30;;;;;;;5.00;2.75;;;4.40;96.00;;;;;;5113725;28;20481;-79
2021/05/08 03:05:58;;;;;;;4.82;2.70;;;4.40;95.90;;;;;;5113818;28;20444;-79
2021/05/08 03:08:24;;;;;;;6.20;3.22;;;4.40;95.80;;;;;;5113147;28;20083;-78
2021/05/08 03:10:51;;;;;;;5.75;3.15;;;4.40;95.90;;;;;;5112844;28;20047;-80
2021/05/08 03:13:17;;;;;;;5.78;3.10;;;4.30;96.40;;;;;;5112653;28;20055;-78
2021/05/08 03:15:45;;;;;;;6.20;3.40;;;4.30;96.70;;;;;;5112929;28;20138;-78
2021/05/08 03:18:12;;;;;;;5.47;2.80;;;4.30;96.50;;;;;;5113127;28;20482;-78
2021/05/08 03:20:38;;;;;;;6.10;2.92;;;4.20;96.80;;;;;;5112773;28;20139;-79
2021/05/08 03:23:06;;;;;;;4.75;2.72;;;4.30;96.90;;;;;;5112750;28;20130;-79
2021/05/08 03:25:32;;;;;;;5.75;3.10;;;4.40;96.80;;;;;;5112884;28;20074;-79
2021/05/08 03:27:59;;;;;;;5.10;2.60;;;4.50;96.30;;;;;;5113302;28;20082;-79
2021/05/08 03:30:26;;;;;;;5.38;2.97;;;4.40;96.30;;;;;;5113547;28;20130;-79
2021/05/08 03:32:53;;;;;;;5.18;2.95;;;4.40;96.50;;;;;;5097933;28;20067;-79
2021/05/08 03:35:19;;;;;;;6.38;3.17;;;4.40;96.00;;;;;;5113004;28;20075;-79
2021/05/08 03:37:46;;;;;;;6.43;2.88;;;4.30;96.40;;;;;;5112735;28;20189;-79
2021/05/08 03:40:15;;;;;;;4.90;2.75;;;4.30;96.60;;;;;;5112849;28;20075;-79
2021/05/08 03:42:41;;;;;;;5.93;2.95;;;4.30;96.70;;;;;;5112396;28;20079;-79
2021/05/08 03:45:10;;;;;;;5.95;2.58;;;4.30;96.70;;;;;;5112615;28;20484;-79
2021/05/08 03:47:36;;;;;;;4.47;2.45;;;4.40;96.40;;;;;;5111983;28;20079;-79
2021/05/08 03:50:04;;;;;;;4.90;2.60;;;4.40;96.20;;;;;;5112568;28;20101;-79
2021/05/08 03:52:31;;;;;;;5.65;2.83;;;4.40;96.20;;;;;;5115703;28;20128;-79
2021/05/08 03:54:59;;;;;;;4.82;2.83;;;4.40;96.20;;;;;;5113226;28;20074;-78
2021/05/08 03:57:26;;;;;;;5.85;2.80;;;4.40;96.20;;;;;;5112577;28;20047;-78
2021/05/08 03:59:53;;;;;;;5.30;2.85;;;4.50;96.00;;;;;;5112493;28;20067;-79
2021/05/08 04:02:20;;;;;;;5.75;3.08;;;4.40;96.00;;;;;;5113800;28;20123;-78
2021/05/08 04:04:46;;;;;;;6.18;2.72;;;4.30;96.00;;;;;;5120805;28;20485;-79
2021/05/08 04:07:13;;;;;;;6.03;2.92;;;4.20;96.00;;;;;;5106492;28;20051;-78
2021/05/08 04:09:40;;;;;;;5.65;2.75;;;4.20;96.00;;;;;;5118623;28;20538;-78
2021/05/08 04:12:07;;;;;;;4.53;2.55;;;4.10;96.10;;;;;;5120875;28;20047;-79
2021/05/08 04:14:35;;;;;;;5.20;2.80;;;4.10;96.30;;;;;;5113805;28;20070;-78
2021/05/08 04:17:02;;;;;;;4.28;2.55;;;4.10;96.30;;;;;;5123680;28;20050;-78
2021/05/08 04:19:29;;;;;;;4.90;2.90;;;4.10;96.30;;;;;;5125527;28;20036;-78
2021/05/08 04:21:56;;;;;;;4.25;2.70;;;4.20;96.40;;;;;;5125103;28;20068;-78
2021/05/08 04:24:23;;;;;;;5.68;2.63;;;4.20;96.30;;;;;;5116185;28;20409;-79
2021/05/08 04:26:49;;;;;;;4.70;2.60;;;4.20;96.50;;;;;;5112847;28;20093;-78
2021/05/08 04:29:16;;;;;;;6.55;2.92;;;4.20;96.70;;;;;;5113901;28;20090;-79
2021/05/08 04:31:43;;;;;;;5.03;3.00;;;4.30;96.60;;;;;;5113120;28;20126;-79
2021/05/08 04:34:10;;;;;;;6.78;2.85;;;4.30;96.50;;;;;;5113609;28;20082;-77
2021/05/08 04:36:37;;;;;;;4.35;2.45;;;4.30;96.50;;;;;;5113724;28;20468;-79
2021/05/08 04:39:05;;;;;;;4.93;2.67;;;4.40;96.50;;;;;;5113982;28;20090;-79
2021/05/08 04:41:31;;;;;;;5.53;2.95;;;4.50;96.50;;;;;;5114034;28;20471;-79
2021/05/08 04:43:58;;;;;;;6.90;3.17;;;4.50;96.20;;;;;;5113733;28;20531;-78
2021/05/08 04:46:25;;;;;;;5.68;3.40;;;4.40;96.00;;;;;;5113681;28;20056;-79
2021/05/08 04:48:54;;;;;;;16.65;8.25;;;4.50;96.30;;;;;;5113687;28;20417;-78
2021/05/08 04:51:21;;;;;;;15.65;7.55;;;4.50;96.40;;;;;;5113943;28;20077;-80
2021/05/08 04:53:49;;;;;;;11.07;5.50;;;4.60;96.50;;;;;;5113924;28;20051;-79
2021/05/08 04:56:15;;;;;;;6.03;3.38;;;4.60;96.60;;;;;;5113724;28;20063;-78
2021/05/08 04:58:43;;;;;;;6.30;2.90;;;4.70;96.60;;;;;;5113159;28;20051;-79
2021/05/08 05:01:09;;;;;;;5.43;3.03;;;4.70;96.80;;;;;;5113399;28;20039;-78
2021/05/08 05:03:36;;;;;;;4.63;2.70;;;4.60;96.40;;;;;;5113679;28;20039;-78
2021/05/08 05:06:04;;;;;;;6.68;3.10;;;4.80;96.30;;;;;;5112325;28;20489;-79
2021/05/08 05:08:31;;;;;;;5.80;2.80;;;4.80;96.20;;;;;;5113629;28;20075;-78
2021/05/08 05:10:58;;;;;;;4.88;2.80;;;4.80;96.20;;;;;;5113422;28;20090;-77
2021/05/08 05:13:25;;;;;;;4.28;2.80;;;4.80;96.10;;;;;;5123214;28;20480;-78
2021/05/08 05:15:52;;;;;;;6.65;3.22;;;4.80;96.00;;;;;;5121654;28;20066;-79
2021/05/08 05:18:19;;;;;;;6.40;3.10;;;4.80;96.00;;;;;;5101071;28;20067;-79
2021/05/08 05:20:46;;;;;;;5.97;3.13;;;4.80;96.20;;;;;;5094501;28;20048;-78
2021/05/08 05:23:14;;;;;;;6.78;3.40;;;4.70;96.30;;;;;;5094507;28;20150;-78
2021/05/08 05:25:41;;;;;;;4.65;2.92;;;4.70;96.40;;;;;;5095916;28;20088;-80
2021/05/08 05:28:20;;;;;;;7.45;3.00;;;4.70;96.50;;;;;;5093978;28;20548;-79
2021/05/08 05:30:48;;;;;;;6.45;3.38;;;4.60;96.80;;;;;;5104279;28;20093;-79
2021/05/08 05:33:14;;;;;;;6.13;3.40;;;4.60;96.80;;;;;;5107436;28;20052;-79
2021/05/08 05:35:41;;;;;;;5.65;3.55;;;4.60;97.00;;;;;;5113504;28;20089;-80
2021/05/08 05:38:08;;;;;;;5.65;3.50;;;4.60;97.20;;;;;;5116606;28;20436;-79
2021/05/08 05:40:35;;;;;;;6.22;3.78;;;4.70;97.20;;;;;;5117490;28;20118;-79
2021/05/08 05:43:02;;;;;;;6.95;3.47;;;4.70;97.30;;;;;;5111764;28;20079;-80
2021/05/08 05:45:29;;;;;;;6.50;3.50;;;4.70;97.40;;;;;;5115355;28;20082;-79
2021/05/08 05:47:56;;;;;;;5.40;3.35;;;4.70;97.50;;;;;;5119624;28;20094;-79
2021/05/08 05:50:24;;;;;;;6.13;3.30;;;4.80;97.50;;;;;;5126488;28;20421;-81
2021/05/08 05:52:53;;;;;;;5.80;3.33;;;4.80;97.50;;;;;;5126574;28;20093;-79
2021/05/08 05:55:20;;;;;;;7.07;3.28;;;4.90;97.50;;;;;;5118774;28;20075;-80
2021/05/08 05:57:47;;;;;;;7.28;3.38;;;5.00;97.50;;;;;;5106823;27;20409;-80
2021/05/08 06:00:16;;;;;;;7.07;3.45;;;5.20;97.50;;;;;;5104693;28;20079;-79
2021/05/08 06:02:42;;;;;;;5.43;3.47;;;5.10;97.30;;;;;;5116450;28;20501;-79
2021/05/08 06:05:10;;;;;;;7.35;3.58;;;5.20;97.40;;;;;;5096923;28;20079;-80
2021/05/08 06:07:37;;;;;;;6.05;3.45;;;5.30;97.30;;;;;;5116019;28;20580;-79
2021/05/08 06:10:06;;;;;;;6.03;3.50;;;5.50;97.30;;;;;;5116964;28;20456;-79
2021/05/08 06:12:33;;;;;;;5.60;3.42;;;5.50;97.30;;;;;;5098734;28;20040;-80
2021/05/08 06:15:01;;;;;;;5.43;3.22;;;5.60;97.40;;;;;;5116119;28;20134;-79
2021/05/08 06:17:27;;;;;;;5.82;3.50;;;5.60;97.50;;;;;;5078100;28;20071;-82
2021/05/08 06:19:54;;;;;;;5.03;3.22;;;5.70;97.50;;;;;;5096696;28;20118;-79
2021/05/08 06:22:21;;;;;;;6.28;3.08;;;5.80;97.20;;;;;;5116459;28;20449;-78
2021/05/08 06:24:47;;;;;;;5.35;3.50;;;5.70;97.10;;;;;;5111594;28;20125;-81
2021/05/08 06:27:14;;;;;;;5.47;3.65;;;6.00;97.20;;;;;;5110530;28;20047;-83
2021/05/08 06:29:41;;;;;;;7.00;3.30;;;6.00;97.10;;;;;;5118795;27;20561;-86
2021/05/08 06:32:09;;;;;;;6.47;3.17;;;6.30;97.00;;;;;;5125833;28;20043;-83
2021/05/08 06:34:36;;;;;;;6.43;3.53;;;6.30;96.80;;;;;;5123830;28;20524;-82
2021/05/08 06:37:05;;;;;;;6.97;3.35;;;6.30;96.70;;;;;;5096665;28;20063;-83
2021/05/08 06:39:32;;;;;;;6.22;3.00;;;6.40;96.70;;;;;;5099797;28;20105;-82
2021/05/08 06:41:59;;;;;;;6.57;3.53;;;6.50;96.70;;;;;;5113497;28;20098;-82
2021/05/08 06:44:26;;;;;;;6.47;3.20;;;6.60;96.70;;;;;;5098490;28;20134;-83
2021/05/08 06:46:53;;;;;;;7.43;2.88;;;6.80;96.50;;;;;;5104873;28;20043;-85
2021/05/08 06:49:20;;;;;;;6.82;3.30;;;6.80;96.40;;;;;;5082016;27;20040;-86
2021/05/08 06:51:47;;;;;;;5.13;2.85;;;6.90;96.50;;;;;;5097614;28;20047;-83
2021/05/08 06:54:14;;;;;;;6.03;3.17;;;7.00;96.10;;;;;;5125170;27;20051;-85
2021/05/08 06:56:41;;;;;;;5.43;3.20;;;7.20;96.00;;;;;;5096926;28;20140;-83
2021/05/08 06:59:08;;;;;;;5.43;2.72;;;7.20;95.40;;;;;;5113380;28;20071;-83
2021/05/08 07:01:35;;;;;;;5.82;3.08;;;7.40;95.10;;;;;;5116518;28;20079;-83
2021/05/08 07:04:03;;;;;;;4.90;2.95;;;7.50;94.80;;;;;;5116687;28;20075;-82
2021/05/08 07:06:31;;;;;;;6.10;2.92;;;7.60;94.50;;;;;;5098249;28;20079;-82
2021/05/08 07:08:57;;;;;;;5.28;2.90;;;7.60;94.40;;;;;;5116093;28;20067;-82
2021/05/08 07:11:25;;;;;;;5.35;3.03;;;7.90;94.30;;;;;;5097807;28;20130;-82
2021/05/08 07:13:52;;;;;;;5.38;3.20;;;8.00;94.10;;;;;;5083390;28;20075;-85
2021/05/08 07:16:19;;;;;;;5.28;3.00;;;8.10;94.20;;;;;;5118937;28;20138;-82
2021/05/08 07:18:45;;;;;;;4.45;2.63;;;8.30;94.20;;;;;;5117639;28;20050;-83
2021/05/08 07:21:12;;;;;;;4.65;2.70;;;8.30;94.20;;;;;;5117100;28;20076;-81
2021/05/08 07:23:40;;;;;;;5.32;3.13;;;8.40;94.40;;;;;;5116924;28;20086;-84
2021/05/08 07:26:07;;;;;;;6.10;3.28;;;8.40;94.10;;;;;;5099114;28;20134;-81
2021/05/08 07:28:33;;;;;;;6.65;2.88;;;8.60;93.90;;;;;;5094276;28;20074;-83
2021/05/08 07:31:00;;;;;;;5.65;3.05;;;8.80;93.80;;;;;;5097422;28;20138;-81
2021/05/08 07:33:27;;;;;;;5.07;2.80;;;8.90;93.60;;;;;;5096435;28;20052;-81
2021/05/08 07:35:54;;;;;;;6.03;2.90;;;8.80;93.40;;;;;;5115503;28;20488;-81
2021/05/08 07:38:21;;;;;;;7.50;2.90;;;9.00;93.10;;;;;;5115677;28;20047;-80
2021/05/08 07:40:50;;;;;;;4.25;2.70;;;9.20;93.10;;;;;;5116181;28;20075;-80
2021/05/08 07:43:19;;;;;;;4.32;2.63;;;9.30;93.00;;;;;;5116184;28;20048;-80
2021/05/08 07:45:46;;;;;;;5.05;2.70;;;9.40;92.80;;;;;;5114837;28;20048;-80
2021/05/08 07:48:13;;;;;;;5.20;2.85;;;9.50;92.60;;;;;;5115517;28;20135;-80
2021/05/08 07:50:41;;;;;;;4.47;2.60;;;9.60;92.40;;;;;;5097319;28;20135;-79
2021/05/08 07:53:07;;;;;;;5.30;2.58;;;9.70;92.20;;;;;;5097269;28;20142;-80
2021/05/08 07:55:34;;;;;;;4.22;2.33;;;9.80;92.10;;;;;;5097364;28;20079;-79
2021/05/08 07:58:05;;;;;;;5.38;2.58;;;9.80;91.70;;;;;;5114633;28;20134;-79
2021/05/08 08:00:32;;;;;;;5.10;2.47;;;9.90;91.80;;;;;;5114745;28;20415;-80
2021/05/08 08:02:59;;;;;;;4.80;3.10;;;10.00;91.80;;;;;;5096678;28;20421;-79
2021/05/08 08:05:26;;;;;;;5.35;3.13;;;10.00;91.50;;;;;;5114766;28;20111;-81
2021/05/08 08:07:53;;;;;;;3.65;2.38;;;10.10;91.50;;;;;;5115007;28;20134;-79
2021/05/08 08:10:20;;;;;;;5.28;2.45;;;10.10;91.60;;;;;;5114709;28;20104;-80
2021/05/08 08:12:46;;;;;;;5.20;2.40;;;10.20;91.80;;;;;;5096978;28;20054;-79
2021/05/08 08:15:15;;;;;;;4.40;2.20;;;10.30;91.80;;;;;;5114260;28;20071;-79
2021/05/08 08:17:42;;;;;;;4.63;2.80;;;10.30;91.70;;;;;;5114519;28;20079;-79
2021/05/08 08:20:12;;;;;;;4.28;2.33;;;10.40;91.60;;;;;;5113739;28;20075;-79
2021/05/08 08:22:42;;;;;;;4.57;2.10;;;10.40;91.40;;;;;;5113621;28;20482;-77
2021/05/08 08:25:11;;;;;;;3.72;2.00;;;10.50;91.60;;;;;;5114988;28;20480;-79
2021/05/08 08:27:38;;;;;;;4.65;2.40;;;10.60;91.50;;;;;;5114084;28;20136;-79
2021/05/08 08:30:08;;;;;;;5.65;2.42;;;10.70;91.30;;;;;;5095917;28;20135;-79
2021/05/08 08:32:36;;;;;;;5.70;2.17;;;10.80;90.90;;;;;;5111873;28;20083;-79
2021/05/08 08:35:04;;;;;;;4.78;2.20;;;10.80;90.70;;;;;;5111054;28;20115;-78
2021/05/08 08:37:31;;;;;;;5.38;2.20;;;11.00;90.80;;;;;;5093138;28;20071;-79
2021/05/08 08:39:58;;;;;;;3.88;2.00;;;11.00;90.70;;;;;;5093329;28;20130;-78
2021/05/08 08:42:25;;;;;;;4.22;2.10;;;11.10;90.70;;;;;;5093198;28;20512;-79
2021/05/08 08:44:52;;;;;;;4.18;2.22;;;11.20;90.60;;;;;;5108567;28;20048;-78
2021/05/08 08:47:29;;;;;;;4.05;1.90;;;11.30;90.40;;;;;;5098142;28;20078;-77
2021/05/08 08:50:00;;;;;;;3.70;1.80;;;11.40;90.30;;;;;;5112762;28;20078;-77
2021/05/08 08:52:28;;;;;;;3.80;1.70;;;11.60;89.80;;;;;;5116400;28;20058;-77
2021/05/08 08:54:57;;;;;;;4.32;1.63;;;11.70;89.10;;;;;;5111293;28;20082;-77
2021/05/08 08:57:28;;;;;;;5.40;1.73;;;11.80;87.60;;;;;;5110731;28;20040;-78
2021/05/08 08:59:55;;;;;;;3.58;1.63;;;11.90;86.40;;;;;;5122265;28;20070;-78
2021/05/08 09:02:27;;;;;;;3.10;1.40;;;12.00;85.90;;;;;;5121298;28;20040;-82
2021/05/08 09:04:54;;;;;;;3.65;1.50;;;12.20;85.00;;;;;;5126509;28;20047;-78
2021/05/08 09:07:26;;;;;;;2.70;1.40;;;12.30;84.10;;;;;;5114606;28;20443;-77
2021/05/08 09:09:53;;;;;;;2.97;1.60;;;12.40;83.20;;;;;;5104597;28;20054;-78
2021/05/08 09:12:20;;;;;;;3.97;1.55;;;12.50;82.00;;;;;;5114874;28;20127;-78
2021/05/08 09:14:50;;;;;;;4.00;1.70;;;12.60;81.30;;;;;;5102056;28;20154;-79
2021/05/08 09:17:21;;;;;;;3.83;1.48;;;12.70;80.60;;;;;;5117860;28;20051;-79
2021/05/08 09:19:55;;;;;;;4.22;1.60;;;12.80;80.40;;;;;;5098403;28;20055;-81
2021/05/08 09:22:30;;;;;;;2.83;1.40;;;12.90;77.80;;;;;;5093145;28;20131;-80
2021/05/08 09:25:06;;;;;;;2.47;1.10;;;13.10;76.80;;;;;;5092162;28;20136;-78
2021/05/08 09:27:47;;;;;;;2.75;1.30;;;13.20;74.40;;;;;;5110771;28;20086;-79
2021/05/08 09:30:21;;;;;;;6.05;1.73;;;13.40;70.50;;;;;;5091103;28;20079;-81
2021/05/08 09:32:50;;;;;;;3.08;1.27;;;13.50;67.20;;;;;;5090516;28;20196;-79
2021/05/08 09:35:20;;;;;;;2.88;1.10;;;13.60;67.80;;;;;;5095315;28;20044;-79
2021/05/08 09:37:49;;;;;;;3.08;1.15;;;13.70;68.70;;;;;;5108898;28;20078;-80
2021/05/08 09:40:27;;;;;;;3.05;1.10;;;13.90;69.30;;;;;;5084383;28;20043;-78
2021/05/08 09:42:55;;;;;;;2.72;1.30;;;14.00;69.10;;;;;;5110257;28;20189;-77
2021/05/08 09:45:24;;;;;;;2.65;1.00;;;14.10;68.40;;;;;;5110288;28;20147;-79
2021/05/08 09:47:52;;;;;;;2.63;1.15;;;14.20;68.00;;;;;;5110190;28;20112;-78
2021/05/08 09:50:24;;;;;;;2.58;1.10;;;14.30;66.50;;;;;;5112661;28;20067;-81
2021/05/08 09:52:55;;;;;;;3.00;1.20;;;14.40;65.90;;;;;;5092544;28;20390;-77
2021/05/08 09:55:24;;;;;;;2.72;1.20;;;14.50;65.10;;;;;;5094698;28;20169;-83
2021/05/08 09:58:03;;;;;;;4.15;1.30;;;14.60;64.50;;;;;;5111207;28;20081;-79
2021/05/08 10:00:38;;;;;;;2.17;1.05;;;14.70;64.80;;;;;;5111346;28;20054;-82
2021/05/08 10:03:11;;;;;;;3.28;1.20;;;14.70;64.80;;;;;;5111551;28;20146;-84
2021/05/08 10:05:39;;;;;;;1.90;0.90;;;14.70;64.30;;;;;;5110884;28;20069;-86
2021/05/08 10:08:09;;;;;;;2.30;1.10;;;14.80;63.50;;;;;;5111274;28;20066;-83
2021/05/08 10:10:37;;;;;;;2.72;1.20;;;14.80;63.30;;;;;;5111565;28;20055;-84
2021/05/08 10:13:09;;;;;;;2.83;1.23;;;14.90;64.00;;;;;;5111740;28;20143;-83
2021/05/08 10:15:38;;;;;;;2.45;1.35;;;14.90;62.70;;;;;;5113434;28;20081;-84
2021/05/08 10:18:08;;;;;;;2.70;1.20;;;14.90;60.60;;;;;;5112379;28;20047;-83
2021/05/08 10:20:38;;;;;;;3.58;1.10;;;14.90;60.40;;;;;;5094968;28;20143;-83
2021/05/08 10:23:10;;;;;;;2.63;1.20;;;14.90;60.80;;;;;;5111090;28;20083;-83
2021/05/08 10:25:38;;;;;;;3.25;1.27;;;14.90;60.40;;;;;;5096043;28;20040;-82
2021/05/08 10:28:06;;;;;;;2.63;1.10;;;14.80;56.30;;;;;;5114516;28;20054;-83
2021/05/08 10:30:36;;;;;;;2.85;1.00;;;14.80;57.70;;;;;;5096334;28;20040;-81
2021/05/08 10:33:08;;;;;;;2.83;1.08;;;14.90;56.50;;;;;;5114068;28;20158;-81
2021/05/08 10:35:41;;;;;;;3.13;1.20;;;15.00;56.20;;;;;;5096230;28;20043;-82
2021/05/08 10:38:19;;;;;;;3.25;1.30;;;15.00;55.10;;;;;;5113978;28;20079;-81
2021/05/08 10:40:58;;;;;;;3.67;1.10;;;15.00;54.40;;;;;;5114635;28;20122;-81
2021/05/08 10:43:40;;;;;;;2.53;1.05;;;14.90;55.60;;;;;;5092080;28;20619;-81
2021/05/08 10:46:07;;;;;;;2.80;1.38;;;15.00;55.50;;;;;;5114170;28;20332;-81
2021/05/08 10:48:34;;;;;;;2.40;0.90;;;15.00;55.50;;;;;;5095878;28;20050;-80
2021/05/08 10:51:01;;;;;;;2.90;1.20;;;15.10;56.30;;;;;;5096190;28;20058;-81
2021/05/08 10:53:42;;;;;;;2.72;1.08;;;15.20;56.60;;;;;;5095800;28;20211;-81
2021/05/08 10:56:31;;;;;;;2.53;1.17;;;15.30;57.10;;;;;;5113626;28;20505;-80
2021/05/08 10:59:07;;;;;;;2.95;1.20;;;15.50;56.10;;;;;;5113871;28;20086;-81
2021/05/08 11:01:45;;;;;;;2.65;1.30;;;15.60;54.70;;;;;;5095914;28;20047;-81
2021/05/08 11:04:12;;;;;;;3.05;1.38;;;15.70;54.80;;;;;;5078273;28;20557;-82
2021/05/08 11:06:39;;;;;;;2.75;0.90;;;15.90;55.20;;;;;;5114094;28;20054;-81
2021/05/08 11:09:30;;;;;;;2.45;1.00;;;16.00;56.50;;;;;;5114297;28;20462;-82
2021/05/08 11:11:57;;;;;;;2.20;0.93;;;16.20;56.40;;;;;;5113967;28;20051;-83
2021/05/08 11:14:54;;;;;;;2.72;1.17;;;16.40;55.30;;;;;;5113502;28;20048;-84
2021/05/08 11:17:21;;;;;;;6.32;2.80;;;16.60;54.80;;;;;;5113672;28;20055;-83
2021/05/08 11:19:48;;;;;;;4.30;1.60;;;16.70;54.20;;;;;;5113720;28;20052;-84
2021/05/08 11:22:16;;;;;;;3.97;1.73;;;16.80;53.80;;;;;;5078677;28;20130;-82
2021/05/08 11:24:46;;;;;;;3.15;1.33;;;16.90;54.50;;;;;;5113677;28;20133;-83
2021/05/08 11:27:24;;;;;;;3.85;1.60;;;16.90;54.10;;;;;;5095158;28;20504;-83
2021/05/08 11:29:51;;;;;;;3.88;1.48;;;17.10;53.20;;;;;;5114111;28;20092;-84
2021/05/08 11:32:18;;;;;;;2.88;1.20;;;17.20;50.50;;;;;;5113330;28;20469;-83
2021/05/08 11:34:45;;;;;;;3.88;1.50;;;17.20;51.00;;;;;;5094956;28;20135;-83
2021/05/08 11:37:14;;;;;;;3.20;1.20;;;17.30;50.10;;;;;;5113797;28;20079;-83
2021/05/08 11:39:45;;;;;;;2.45;1.20;;;17.30;49.90;;;;;;5114121;28;20422;-84
2021/05/08 11:42:15;;;;;;;2.47;1.15;;;17.40;49.90;;;;;;5112896;28;20055;-82
2021/05/08 11:44:44;;;;;;;2.60;1.30;;;17.40;50.20;;;;;;5113376;28;20048;-78
2021/05/08 11:47:28;;;;;;;2.83;1.17;;;17.50;48.20;;;;;;5111732;28;20058;-79
2021/05/08 11:49:58;;;;;;;3.03;1.00;;;17.60;48.80;;;;;;5104186;27;20088;-82
2021/05/08 11:52:33;;;;;;;2.65;1.08;;;17.80;49.40;;;;;;5133912;27;20126;-80
2021/05/08 11:55:02;;;;;;;2.25;1.00;;;17.90;49.70;;;;;;5120797;27;20090;-82
2021/05/08 11:57:29;;;;;;;3.60;1.20;;;18.00;49.20;;;;;;5095017;28;20075;-80
2021/05/08 11:59:56;;;;;;;3.53;1.20;;;18.20;48.10;;;;;;5094144;28;20103;-81
2021/05/08 12:02:26;;;;;;;2.67;1.30;;;18.30;47.60;;;;;;5095342;28;20113;-80
2021/05/08 12:04:54;;;;;;;4.32;1.17;;;18.40;48.50;;;;;;5094383;28;20540;-78
2021/05/08 12:07:24;;;;;;;2.17;1.05;;;18.40;48.20;;;;;;5093263;28;20552;-79
2021/05/08 12:09:53;;;;;;;2.97;1.20;;;18.50;48.10;;;;;;5112384;28;20051;-80
2021/05/08 12:12:21;;;;;;;3.35;1.35;;;18.50;46.40;;;;;;5112111;28;20078;-79
2021/05/08 12:14:48;;;;;;;4.75;1.20;;;18.60;46.30;;;;;;5112383;28;20087;-78
2021/05/08 12:17:15;;;;;;;3.97;1.42;;;18.60;47.90;;;;;;5112065;28;20048;-78
2021/05/08 12:19:46;;;;;;;2.70;1.10;;;18.70;47.50;;;;;;5111978;28;20158;-82
2021/05/08 12:22:13;;;;;;;3.85;1.30;;;18.70;46.90;;;;;;5109138;28;20458;-78
2021/05/08 12:24:40;;;;;;;2.45;1.20;;;18.90;48.10;;;;;;5110774;28;20062;-78
2021/05/08 12:27:07;;;;;;;2.65;1.40;;;19.00;47.10;;;;;;5093082;28;20507;-77
2021/05/08 12:29:57;;;;;;;2.83;1.30;;;19.10;46.00;;;;;;5111822;28;20072;-78
2021/05/08 12:32:25;;;;;;;2.00;0.85;;;19.20;45.80;;;;;;5111054;28;20058;-79
2021/05/08 12:34:53;;;;;;;2.42;1.00;;;19.20;46.40;;;;;;5110841;28;20082;-77
2021/05/08 12:37:20;;;;;;;2.13;1.10;;;19.50;47.50;;;;;;5121694;28;20401;-78
2021/05/08 12:39:48;;;;;;;3.50;1.30;;;19.60;47.10;;;;;;5125626;28;20077;-79
2021/05/08 12:42:15;;;;;;;3.10;1.30;;;19.60;45.70;;;;;;5119948;28;20147;-79
2021/05/08 12:44:47;;;;;;;1.90;0.80;;;19.70;44.60;;;;;;5113314;28;20122;-79
2021/05/08 12:47:16;;;;;;;1.90;0.85;;;19.70;45.70;;;;;;5112485;28;20047;-80
2021/05/08 12:50:08;;;;;;;2.38;1.08;;;19.60;45.50;;;;;;5113722;28;20070;-80
2021/05/08 12:52:36;;;;;;;2.40;1.10;;;19.70;46.10;;;;;;5113684;28;20481;-79
2021/05/08 12:55:03;;;;;;;2.45;1.20;;;19.80;46.40;;;;;;5113630;28;20124;-79
2021/05/08 12:57:33;;;;;;;3.05;1.15;;;19.90;47.20;;;;;;5114293;28;20083;-79
2021/05/08 13:00:04;;;;;;;1.80;0.90;;;20.00;46.90;;;;;;5114420;28;20131;-79